createdAt,value
2023-02-12T00:01:10.767Z,7.98
2023-02-12T00:03:37.922Z,7.96
2023-02-12T00:06:04.725Z,7.98
2023-02-12T00:08:31.119Z,7.97
2023-02-12T00:10:57.585Z,7.91
2023-02-12T00:13:24.157Z,7.91
2023-02-12T00:15:50.543Z,7.90
2023-02-12T00:18:17.050Z,7.86
2023-02-12T00:20:43.458Z,7.88
2023-02-12T00:23:10.480Z,7.90
2023-02-12T00:25:41.052Z,7.89
2023-02-12T00:28:07.560Z,7.91
2023-02-12T00:30:34.204Z,7.93
2023-02-12T00:33:00.603Z,7.93
2023-02-12T00:35:27.073Z,7.91
2023-02-12T00:37:53.397Z,7.86
2023-02-12T00:40:19.832Z,7.86
2023-02-12T00:42:46.202Z,7.87
2023-02-12T00:45:12.601Z,7.89
2023-02-12T00:47:38.972Z,7.89
2023-02-12T00:50:06.091Z,7.92
2023-02-12T00:52:32.450Z,7.92
2023-02-12T00:54:58.865Z,7.88
2023-02-12T00:57:25.465Z,7.88
2023-02-12T00:59:51.817Z,7.90
2023-02-12T01:02:18.261Z,7.87
2023-02-12T01:04:45.041Z,7.91
2023-02-12T01:07:11.594Z,7.89
2023-02-12T01:09:38.002Z,7.89
2023-02-12T01:12:04.760Z,7.88
2023-02-12T01:14:31.173Z,7.90
2023-02-12T01:16:57.550Z,7.91
2023-02-12T01:19:24.046Z,7.92
2023-02-12T01:21:50.564Z,7.92
2023-02-12T01:24:16.967Z,7.89
2023-02-12T01:26:43.453Z,7.88
2023-02-12T01:29:10.367Z,7.88
2023-02-12T01:31:39.217Z,7.89
2023-02-12T01:34:07.636Z,7.90
2023-02-12T01:36:34.923Z,7.91
2023-02-12T01:39:02.847Z,7.87
2023-02-12T01:41:38.988Z,7.84
2023-02-12T01:44:15.637Z,7.83
2023-02-12T01:46:44.413Z,7.82
2023-02-12T01:49:28.278Z,7.81
2023-02-12T01:52:01.171Z,7.80
2023-02-12T01:54:29.062Z,7.82
2023-02-12T01:56:55.712Z,7.79
2023-02-12T01:59:22.532Z,7.78
2023-02-12T02:01:48.943Z,7.78
2023-02-12T02:04:19.025Z,7.78
2023-02-12T02:06:53.347Z,7.76
2023-02-12T02:09:20.399Z,7.76
2023-02-12T02:12:05.262Z,7.71
2023-02-12T02:14:34.985Z,7.69
2023-02-12T02:17:44.409Z,7.69
2023-02-12T02:20:26.384Z,7.71
2023-02-12T02:23:14.232Z,7.69
2023-02-12T02:25:40.582Z,7.68
2023-02-12T02:28:45.861Z,7.63
2023-02-12T02:31:25.574Z,7.58
2023-02-12T02:34:06.780Z,7.59
2023-02-12T02:37:00.226Z,7.59
2023-02-12T02:39:41.616Z,7.58
2023-02-12T02:42:16.158Z,7.55
2023-02-12T02:44:50.902Z,7.53
2023-02-12T02:47:21.305Z,7.53
2023-02-12T02:49:55.036Z,7.52
2023-02-12T02:52:30.367Z,7.53
2023-02-12T02:55:02.568Z,7.57
2023-02-12T02:57:35.513Z,7.58
2023-02-12T03:00:15.736Z,7.54
2023-02-12T03:02:49.229Z,7.48
2023-02-12T03:05:26.780Z,7.48
2023-02-12T03:08:03.043Z,7.47
2023-02-12T03:10:34.602Z,7.46
2023-02-12T03:13:11.190Z,7.47
2023-02-12T03:15:46.994Z,7.47
2023-02-12T03:18:22.294Z,7.45
2023-02-12T03:20:54.878Z,7.47
2023-02-12T03:23:56.343Z,7.41
2023-02-12T03:26:27.165Z,7.42
2023-02-12T03:28:53.623Z,7.44
2023-02-12T03:31:31.372Z,7.48
2023-02-12T03:34:25.481Z,7.47
2023-02-12T03:36:56.808Z,7.51
2023-02-12T03:39:42.966Z,7.49
2023-02-12T03:42:16.344Z,7.48
2023-02-12T03:44:58.667Z,7.47
2023-02-12T03:48:07.418Z,7.48
2023-02-12T03:50:46.577Z,7.46
2023-02-12T03:53:13.043Z,7.47
2023-02-12T03:55:43.619Z,7.48
2023-02-12T03:58:14.677Z,7.49
2023-02-12T04:00:41.175Z,7.49
2023-02-12T04:03:07.689Z,7.47
2023-02-12T04:05:34.036Z,7.50
2023-02-12T04:08:02.470Z,7.52
2023-02-12T04:10:38.723Z,7.54
2023-02-12T04:13:19.364Z,7.54
2023-02-12T04:16:10.014Z,7.54
2023-02-12T04:18:44.537Z,7.52
2023-02-12T04:21:26.286Z,7.48
2023-02-12T04:24:23.501Z,7.49
2023-02-12T04:27:14.150Z,7.52
2023-02-12T04:30:10.145Z,7.54
2023-02-12T04:33:01.207Z,7.53
2023-02-12T04:35:36.557Z,7.51
2023-02-12T04:38:11.459Z,7.48
2023-02-12T04:40:42.043Z,7.45
2023-02-12T04:43:08.728Z,7.41
2023-02-12T04:45:36.902Z,7.38
2023-02-12T04:48:04.988Z,7.39
2023-02-12T04:50:43.078Z,7.41
2023-02-12T04:53:10.618Z,7.42
2023-02-12T04:55:37.324Z,7.45
2023-02-12T04:58:04.166Z,7.48
2023-02-12T05:00:30.555Z,7.48
2023-02-12T05:02:56.886Z,7.47
2023-02-12T05:05:23.861Z,7.49
2023-02-12T05:07:50.238Z,7.50
2023-02-12T05:10:16.742Z,7.53
2023-02-12T05:12:43.125Z,7.54
2023-02-12T05:15:09.716Z,7.53
2023-02-12T05:17:36.117Z,7.53
2023-02-12T05:20:02.517Z,7.53
2023-02-12T05:22:28.979Z,7.52
2023-02-12T05:24:55.349Z,7.52
2023-02-12T05:27:21.728Z,7.52
2023-02-12T05:29:48.149Z,7.52
2023-02-12T05:32:14.624Z,7.49
2023-02-12T05:34:41.054Z,7.50
2023-02-12T05:37:07.496Z,7.49
2023-02-12T05:39:33.864Z,7.51
2023-02-12T05:42:00.241Z,7.50
2023-02-12T05:44:26.719Z,7.47
2023-02-12T05:46:53.116Z,7.46
2023-02-12T05:49:19.509Z,7.43
2023-02-12T05:51:45.926Z,7.42
2023-02-12T05:54:12.431Z,7.38
2023-02-12T05:56:44.395Z,7.38
2023-02-12T05:59:17.182Z,7.37
2023-02-12T06:01:45.332Z,7.38
2023-02-12T06:04:20.910Z,7.36
2023-02-12T06:06:47.410Z,7.39
2023-02-12T06:09:14.287Z,7.40
2023-02-12T06:11:41.317Z,7.43
2023-02-12T06:14:10.984Z,7.40
2023-02-12T06:16:37.415Z,7.43
2023-02-12T06:19:05.598Z,7.47
2023-02-12T06:21:33.659Z,7.49
2023-02-12T06:24:00.117Z,7.51
2023-02-12T06:26:26.669Z,7.50
2023-02-12T06:28:53.116Z,7.51
2023-02-12T06:31:31.423Z,7.51
2023-02-12T06:34:01.041Z,7.48
2023-02-12T06:36:27.883Z,7.47
2023-02-12T06:38:54.272Z,7.44
2023-02-12T06:41:21.700Z,7.46
2023-02-12T06:43:48.671Z,7.48
2023-02-12T06:46:15.382Z,7.49
2023-02-12T06:48:41.945Z,7.49
2023-02-12T06:51:15.152Z,7.50
2023-02-12T06:53:42.146Z,7.51
2023-02-12T06:56:13.082Z,7.52
2023-02-12T06:58:44.652Z,7.52
2023-02-12T07:01:17.817Z,7.47
2023-02-12T07:03:50.084Z,7.45
2023-02-12T07:06:16.935Z,7.45
2023-02-12T07:08:43.504Z,7.47
2023-02-12T07:11:10.957Z,7.48
2023-02-12T07:13:37.476Z,7.46
2023-02-12T07:16:12.059Z,7.44
2023-02-12T07:18:38.862Z,7.44
2023-02-12T07:21:07.244Z,7.43
2023-02-12T07:23:34.098Z,7.43
2023-02-12T07:26:12.146Z,7.43
2023-02-12T07:28:39.159Z,7.43
2023-02-12T07:31:15.972Z,7.45
2023-02-12T07:33:43.128Z,7.45
2023-02-12T07:36:13.340Z,7.44
2023-02-12T07:38:40.084Z,7.46
2023-02-12T07:41:14.096Z,7.43
2023-02-12T07:43:41.839Z,7.43
2023-02-12T07:46:13.668Z,7.44
2023-02-12T07:48:40.304Z,7.43
2023-02-12T07:51:09.078Z,7.44
2023-02-12T07:53:36.325Z,7.45
2023-02-12T07:56:06.768Z,7.44
2023-02-12T07:58:33.292Z,7.44
2023-02-12T08:00:59.652Z,7.45
2023-02-12T08:03:29.104Z,7.47
2023-02-12T08:05:55.843Z,7.47
2023-02-12T08:08:22.333Z,7.49
2023-02-12T08:10:48.676Z,7.48
2023-02-12T08:13:15.004Z,7.45
2023-02-12T08:15:41.501Z,7.46
2023-02-12T08:18:07.855Z,7.47
2023-02-12T08:20:34.604Z,7.48
2023-02-12T08:23:00.900Z,7.50
2023-02-12T08:25:27.219Z,7.45
2023-02-12T08:27:53.575Z,7.44
2023-02-12T08:30:20.023Z,7.46
2023-02-12T08:32:49.511Z,7.48
2023-02-12T08:35:15.926Z,7.49
2023-02-12T08:37:42.333Z,7.51
2023-02-12T08:40:09.490Z,7.52
2023-02-12T08:42:35.868Z,7.51
2023-02-12T08:45:02.214Z,7.52
2023-02-12T08:47:31.279Z,7.52
2023-02-12T08:49:57.674Z,7.54
2023-02-12T08:52:24.012Z,7.53
2023-02-12T08:54:50.430Z,7.52
2023-02-12T08:57:16.823Z,7.53
2023-02-12T08:59:43.146Z,7.54
2023-02-12T09:02:10.810Z,7.55
2023-02-12T09:04:37.636Z,7.58
2023-02-12T09:07:04.034Z,7.58
2023-02-12T09:09:30.429Z,7.60
2023-02-12T09:11:56.844Z,7.59
2023-02-12T09:14:24.291Z,7.60
2023-02-12T09:16:53.050Z,7.61
2023-02-12T09:19:19.644Z,7.60
2023-02-12T09:21:45.963Z,7.60
2023-02-12T09:24:12.372Z,7.59
2023-02-12T09:26:39.571Z,7.59
2023-02-12T09:29:06.034Z,7.60
2023-02-12T09:31:33.263Z,7.62
2023-02-12T09:34:05.971Z,7.64
2023-02-12T09:36:32.982Z,7.65
2023-02-12T09:39:00.412Z,7.65
2023-02-12T09:41:49.839Z,7.64
2023-02-12T09:44:25.886Z,7.64
2023-02-12T09:47:09.765Z,7.66
2023-02-12T09:49:53.673Z,7.66
2023-02-12T09:52:24.394Z,7.69
2023-02-12T09:54:51.265Z,7.69
2023-02-12T09:57:31.286Z,7.72
2023-02-12T10:00:04.332Z,7.72
2023-02-12T10:02:30.783Z,7.72
2023-02-12T10:05:01.999Z,7.70
2023-02-12T10:07:43.533Z,7.73
2023-02-12T10:10:37.910Z,7.71
2023-02-12T10:13:10.862Z,7.74
2023-02-12T10:16:01.070Z,7.75
2023-02-12T10:18:53.160Z,7.77
2023-02-12T10:21:53.053Z,7.77
2023-02-12T10:24:38.237Z,7.79
2023-02-12T10:27:16.687Z,7.80
2023-02-12T10:29:45.745Z,7.80
2023-02-12T10:32:23.652Z,7.80
2023-02-12T10:34:50.871Z,7.80
2023-02-12T10:37:32.336Z,7.82
2023-02-12T10:40:04.736Z,7.82
2023-02-12T10:42:40.561Z,7.82
2023-02-12T10:45:14.039Z,7.83
2023-02-12T10:47:40.429Z,7.83
2023-02-12T10:50:37.819Z,7.85
2023-02-12T10:53:04.317Z,7.86
2023-02-12T10:55:30.848Z,7.86
2023-02-12T10:57:58.658Z,7.87
2023-02-12T11:00:36.988Z,7.88
2023-02-12T11:03:12.290Z,7.88
2023-02-12T11:05:40.909Z,7.89
2023-02-12T11:08:25.989Z,7.88
2023-02-12T11:10:52.780Z,7.89
2023-02-12T11:13:26.190Z,7.92
2023-02-12T11:15:53.375Z,7.93
2023-02-12T11:18:28.712Z,7.93
2023-02-12T11:21:04.224Z,7.94
2023-02-12T11:23:33.212Z,7.94
2023-02-12T11:26:17.690Z,7.95
2023-02-12T11:28:55.176Z,7.96
2023-02-12T11:31:27.289Z,7.97
2023-02-12T11:34:15.871Z,7.97
2023-02-12T11:36:48.644Z,7.99
2023-02-12T11:39:27.900Z,7.98
2023-02-12T11:41:57.565Z,7.99
2023-02-12T11:44:37.672Z,7.99
2023-02-12T11:47:12.090Z,8.00
2023-02-12T11:49:44.398Z,8.01
2023-02-12T11:52:21.782Z,8.02
2023-02-12T11:54:50.985Z,8.02
2023-02-12T11:57:40.126Z,8.05
2023-02-12T12:00:19.616Z,8.04
2023-02-12T12:02:53.637Z,8.05
2023-02-12T12:05:21.989Z,8.07
2023-02-12T12:07:58.534Z,8.07
2023-02-12T12:10:24.810Z,8.08
2023-02-12T12:12:56.198Z,8.09
2023-02-12T12:15:46.780Z,8.10
2023-02-12T12:18:57.645Z,8.09
2023-02-12T12:22:02.254Z,8.10
2023-02-12T12:24:46.217Z,8.11
2023-02-12T12:28:05.483Z,8.13
2023-02-12T12:31:07.991Z,8.13
2023-02-12T12:33:49.485Z,8.16
2023-02-12T12:36:36.632Z,8.16
2023-02-12T12:39:19.546Z,8.16
2023-02-12T12:42:36.646Z,8.15
2023-02-12T12:45:23.014Z,8.16
2023-02-12T12:47:58.564Z,8.17
2023-02-12T12:51:04.137Z,8.17
2023-02-12T12:54:09.010Z,8.15
2023-02-12T12:56:53.922Z,8.16
2023-02-12T12:59:23.158Z,8.17
2023-02-12T13:02:27.165Z,8.18
2023-02-12T13:04:59.617Z,8.19
2023-02-12T13:07:48.105Z,8.20
2023-02-12T13:10:23.635Z,8.23
2023-02-12T13:13:23.176Z,8.21
2023-02-12T13:15:58.637Z,8.21
2023-02-12T13:18:35.139Z,8.21
2023-02-12T13:21:10.695Z,8.23
2023-02-12T13:23:50.858Z,8.23
2023-02-12T13:26:55.426Z,8.21
2023-02-12T13:29:49.561Z,8.21
2023-02-12T13:32:29.905Z,8.23
2023-02-12T13:34:58.260Z,8.25
2023-02-12T13:37:35.456Z,8.26
2023-02-12T13:40:05.557Z,8.25
2023-02-12T13:42:47.521Z,8.24
2023-02-12T13:45:51.577Z,8.24
2023-02-12T13:48:55.290Z,8.25
2023-02-12T13:51:28.345Z,8.27
2023-02-12T13:54:25.676Z,8.26
2023-02-12T13:56:55.506Z,8.28
2023-02-12T13:59:31.691Z,8.29
2023-02-12T14:02:04.644Z,8.27
2023-02-12T14:04:41.078Z,8.26
2023-02-12T14:07:15.556Z,8.26
2023-02-12T14:09:45.679Z,8.25
2023-02-12T14:12:24.001Z,8.25
2023-02-12T14:14:54.938Z,8.24
2023-02-12T14:17:33.463Z,8.23
2023-02-12T14:20:27.925Z,8.23
2023-02-12T14:23:02.417Z,8.23
2023-02-12T14:25:46.639Z,8.23
2023-02-12T14:28:34.546Z,8.23
2023-02-12T14:31:19.650Z,8.21
2023-02-12T14:33:51.530Z,8.21
2023-02-12T14:36:20.074Z,8.20
2023-02-12T14:38:47.854Z,8.16
2023-02-12T14:41:38.625Z,8.16
2023-02-12T14:44:16.853Z,8.18
2023-02-12T14:46:51.989Z,8.18
2023-02-12T14:49:24.677Z,8.19
2023-02-12T14:51:53.580Z,8.20
2023-02-12T14:54:43.655Z,8.20
2023-02-12T14:57:22.468Z,8.18
2023-02-12T14:59:50.320Z,8.16
2023-02-12T15:02:26.761Z,8.19
2023-02-12T15:04:57.312Z,8.18
2023-02-12T15:07:39.244Z,8.15
2023-02-12T15:10:15.047Z,8.15
2023-02-12T15:12:50.268Z,8.16
2023-02-12T15:15:33.535Z,8.13
2023-02-12T15:18:20.469Z,8.16
2023-02-12T15:21:17.115Z,8.14
2023-02-12T15:23:44.768Z,8.10
2023-02-12T15:26:21.708Z,8.10
2023-02-12T15:28:51.148Z,8.09
2023-02-12T15:31:20.538Z,8.11
2023-02-12T15:33:50.718Z,8.10
2023-02-12T15:36:24.298Z,8.07
2023-02-12T15:38:57.430Z,8.07
2023-02-12T15:41:34.139Z,8.07
2023-02-12T15:44:02.278Z,8.09
2023-02-12T15:46:28.776Z,8.09
2023-02-12T15:48:58.353Z,8.09
2023-02-12T15:51:37.035Z,8.11
2023-02-12T15:54:06.559Z,8.15
2023-02-12T15:56:36.138Z,8.16
2023-02-12T15:59:03.928Z,8.15
2023-02-12T16:01:32.745Z,8.18
2023-02-12T16:04:04.955Z,8.18
2023-02-12T16:06:34.409Z,8.13
2023-02-12T16:09:06.549Z,8.09
2023-02-12T16:11:33.922Z,8.06
2023-02-12T16:14:08.216Z,8.07
2023-02-12T16:16:46.139Z,8.09
2023-02-12T16:19:21.572Z,8.13
2023-02-12T16:21:51.803Z,8.16
2023-02-12T16:24:33.450Z,8.15
2023-02-12T16:27:19.664Z,8.14
2023-02-12T16:29:52.249Z,8.14
2023-02-12T16:32:38.426Z,8.13
2023-02-12T16:35:10.924Z,8.15
2023-02-12T16:37:37.309Z,8.12
2023-02-12T16:40:12.828Z,8.10
2023-02-12T16:43:04.548Z,8.08
2023-02-12T16:45:36.224Z,8.05
2023-02-12T16:48:24.956Z,8.04
2023-02-12T16:50:54.564Z,8.08
2023-02-12T16:53:30.042Z,8.08
2023-02-12T16:55:57.130Z,8.07
2023-02-12T16:58:25.772Z,8.09
2023-02-12T17:00:53.496Z,8.10
2023-02-12T17:03:20.238Z,8.05
2023-02-12T17:05:47.076Z,8.06
2023-02-12T17:08:15.222Z,8.01
2023-02-12T17:10:41.676Z,8.02
2023-02-12T17:13:09.595Z,8.00
2023-02-12T17:15:43.866Z,7.95
2023-02-12T17:18:14.204Z,7.93
2023-02-12T17:20:40.626Z,7.94
2023-02-12T17:23:07.512Z,7.96
2023-02-12T17:25:34.500Z,8.00
2023-02-12T17:28:00.909Z,8.01
2023-02-12T17:30:28.952Z,8.01
2023-02-12T17:32:55.353Z,8.02
2023-02-12T17:35:21.723Z,8.01
2023-02-12T17:37:48.042Z,8.03
2023-02-12T17:40:14.533Z,8.02
2023-02-12T17:42:40.908Z,8.00
2023-02-12T17:45:07.787Z,7.98
2023-02-12T17:47:39.699Z,7.95
2023-02-12T17:50:15.072Z,7.89
2023-02-12T17:52:41.955Z,7.92
2023-02-12T17:55:08.920Z,7.95
2023-02-12T17:57:35.342Z,7.95
2023-02-12T18:00:01.752Z,7.96
2023-02-12T18:02:28.078Z,7.94
2023-02-12T18:04:54.405Z,7.95
2023-02-12T18:07:20.817Z,7.99
2023-02-12T18:09:47.244Z,7.98
2023-02-12T18:12:13.750Z,7.99
2023-02-12T18:14:40.243Z,7.96
2023-02-12T18:17:06.713Z,7.95
2023-02-12T18:19:33.121Z,7.96
2023-02-12T18:21:59.590Z,7.98
2023-02-12T18:24:26.017Z,7.98
2023-02-12T18:26:52.411Z,7.98
2023-02-12T18:29:18.883Z,7.99
2023-02-12T18:31:45.511Z,7.99
2023-02-12T18:34:11.950Z,7.96
2023-02-12T18:36:38.395Z,7.93
2023-02-12T18:39:04.775Z,7.92
2023-02-12T18:41:32.354Z,7.94
2023-02-12T18:43:59.245Z,7.93
2023-02-12T18:46:28.684Z,7.86
2023-02-12T18:48:55.761Z,7.81
2023-02-12T18:51:24.932Z,7.78
2023-02-12T18:53:56.147Z,7.72
2023-02-12T18:56:23.247Z,7.74
2023-02-12T18:58:55.486Z,7.77
2023-02-12T19:01:22.023Z,7.76
2023-02-12T19:03:49.443Z,7.78
2023-02-12T19:06:15.836Z,7.82
2023-02-12T19:08:42.267Z,7.85
2023-02-12T19:11:11.322Z,7.84
2023-02-12T19:13:38.448Z,7.86
2023-02-12T19:16:10.187Z,7.89
2023-02-12T19:18:36.581Z,7.88
2023-02-12T19:21:11.693Z,7.85
2023-02-12T19:23:38.778Z,7.86
2023-02-12T19:26:10.481Z,7.88
2023-02-12T19:28:40.241Z,7.91
2023-02-12T19:31:22.825Z,7.92
2023-02-12T19:33:50.745Z,7.93
2023-02-12T19:36:19.300Z,7.95
2023-02-12T19:38:47.060Z,7.94
2023-02-12T19:41:19.510Z,7.92
2023-02-12T19:43:46.389Z,7.91
2023-02-12T19:46:18.799Z,7.91
2023-02-12T19:48:46.976Z,7.90
2023-02-12T19:51:20.766Z,7.93
2023-02-12T19:53:48.209Z,7.95
2023-02-12T19:56:15.441Z,7.95
2023-02-12T19:58:42.233Z,7.94
2023-02-12T20:01:17.409Z,7.94
2023-02-12T20:03:45.005Z,7.89
2023-02-12T20:06:15.841Z,7.87
2023-02-12T20:08:43.110Z,7.89
2023-02-12T20:11:12.441Z,7.90
2023-02-12T20:13:39.093Z,7.92
2023-02-12T20:16:07.913Z,7.91
2023-02-12T20:18:35.526Z,7.90
2023-02-12T20:21:07.759Z,7.92
2023-02-12T20:23:34.105Z,7.89
2023-02-12T20:26:02.975Z,7.88
2023-02-12T20:28:29.403Z,7.88
2023-02-12T20:30:56.110Z,7.86
2023-02-12T20:33:22.773Z,7.84
2023-02-12T20:35:56.844Z,7.84
2023-02-12T20:38:23.336Z,7.85
2023-02-12T20:40:49.676Z,7.86
2023-02-12T20:43:16.140Z,7.85
2023-02-12T20:45:42.513Z,7.81
2023-02-12T20:48:08.914Z,7.80
2023-02-12T20:50:35.722Z,7.75
2023-02-12T20:53:02.406Z,7.71
2023-02-12T20:55:28.973Z,7.73
2023-02-12T20:57:55.289Z,7.79
2023-02-12T21:00:21.655Z,7.79
2023-02-12T21:02:48.118Z,7.77
2023-02-12T21:05:14.751Z,7.79
2023-02-12T21:07:41.148Z,7.80
2023-02-12T21:10:07.899Z,7.82
2023-02-12T21:12:34.324Z,7.81
2023-02-12T21:15:00.692Z,7.80
2023-02-12T21:17:27.445Z,7.79
2023-02-12T21:19:53.862Z,7.78
2023-02-12T21:22:21.327Z,7.79
2023-02-12T21:24:47.684Z,7.78
2023-02-12T21:27:14.042Z,7.78
2023-02-12T21:29:40.429Z,7.79
2023-02-12T21:32:06.893Z,7.80
2023-02-12T21:34:33.276Z,7.79
2023-02-12T21:36:59.640Z,7.74
2023-02-12T21:39:28.151Z,7.68
2023-02-12T21:42:00.836Z,7.64
2023-02-12T21:44:27.928Z,7.61
2023-02-12T21:46:54.750Z,7.63
2023-02-12T21:49:30.125Z,7.66
2023-02-12T21:52:05.943Z,7.62
2023-02-12T21:54:32.644Z,7.67
2023-02-12T21:56:59.645Z,7.68
2023-02-12T21:59:27.491Z,7.65
2023-02-12T22:01:56.199Z,7.69
2023-02-12T22:04:22.616Z,7.67
2023-02-12T22:06:50.517Z,7.67
2023-02-12T22:09:18.759Z,7.66
2023-02-12T22:11:45.432Z,7.66
2023-02-12T22:14:15.417Z,7.68
2023-02-12T22:16:42.453Z,7.67
2023-02-12T22:19:09.607Z,7.71
2023-02-12T22:21:38.639Z,7.72
2023-02-12T22:24:07.901Z,7.72
2023-02-12T22:26:34.941Z,7.67
2023-02-12T22:29:04.025Z,7.62
2023-02-12T22:31:33.904Z,7.64
2023-02-12T22:34:03.086Z,7.64
2023-02-12T22:36:30.193Z,7.62
2023-02-12T22:38:59.990Z,7.60
2023-02-12T22:41:28.018Z,7.61
2023-02-12T22:43:54.992Z,7.62
2023-02-12T22:46:23.170Z,7.61
2023-02-12T22:48:49.566Z,7.61
2023-02-12T22:51:21.537Z,7.62
2023-02-12T22:53:48.265Z,7.65
2023-02-12T22:56:15.230Z,7.62
2023-02-12T22:58:41.967Z,7.60
2023-02-12T23:01:14.703Z,7.62
2023-02-12T23:03:41.631Z,7.62
2023-02-12T23:06:12.261Z,7.65
2023-02-12T23:08:39.145Z,7.61
2023-02-12T23:11:07.935Z,7.63
2023-02-12T23:13:36.152Z,7.65
2023-02-12T23:16:03.464Z,7.67
2023-02-12T23:18:30.490Z,7.67
2023-02-12T23:20:57.370Z,7.68
2023-02-12T23:23:23.908Z,7.68
2023-02-12T23:25:50.962Z,7.67
2023-02-12T23:28:17.696Z,7.69
2023-02-12T23:30:44.273Z,7.68
2023-02-12T23:33:10.833Z,7.68
2023-02-12T23:35:38.396Z,7.66
2023-02-12T23:38:05.139Z,7.66
2023-02-12T23:40:32.340Z,7.65
2023-02-12T23:42:58.716Z,7.65
2023-02-12T23:45:25.459Z,7.66
2023-02-12T23:47:51.906Z,7.66
2023-02-12T23:50:18.553Z,7.67
2023-02-12T23:52:44.964Z,7.66
2023-02-12T23:55:11.405Z,7.63
2023-02-12T23:57:37.736Z,7.64
